Time;durP1;ratioP1;P1;durP2;ratioP2;P2;SDS_P1;SDS_P2;PMS_P1;PMS_P2;Temp;Humidity;BMP_temperature;BMP_pressure;BME280_temperature;BME280_humidity;BME280_pressure;Samples;Min_cycle;Max_cycle;Signal;HPM_P1;HPM_P2
2022/04/20 00:00:15;;;;;;;;;;;10.90;94.60;;;;;;4967199;28;19918;-65
2022/04/20 00:02:41;;;;;;;;;;;10.80;94.80;;;;;;4965875;28;20392;-65
2022/04/20 00:05:07;;;;;;;;;;;10.80;95.20;;;;;;4965411;28;19914;-64
2022/04/20 00:07:33;;;;;;;;;;;10.70;95.20;;;;;;4960774;28;19914;-66
2022/04/20 00:09:59;;;;;;;;;;;10.70;95.20;;;;;;4957102;28;19918;-66
2022/04/20 00:12:25;;;;;;;;;;;10.70;95.10;;;;;;4971024;28;19910;-67
2022/04/20 00:14:51;;;;;;;;;;;10.70;95.70;;;;;;4968164;28;19922;-67
2022/04/20 00:17:16;;;;;;;;;;;10.70;95.60;;;;;;4970752;28;19918;-67
2022/04/20 00:19:42;;;;;;;;;;;10.60;95.50;;;;;;4969218;28;19910;-67
2022/04/20 00:22:07;;;;;;;;;;;10.60;95.30;;;;;;4967171;28;19914;-67
2022/04/20 00:24:33;;;;;;;;;;;10.60;95.60;;;;;;4967653;28;19911;-66
2022/04/20 00:26:58;;;;;;;;;;;10.60;95.50;;;;;;4969884;28;20024;-63
2022/04/20 00:29:24;;;;;;;;;;;10.60;95.90;;;;;;4966959;28;19922;-65
2022/04/20 00:31:49;;;;;;;;;;;10.60;95.60;;;;;;4962650;28;20309;-66
2022/04/20 00:34:15;;;;;;;;;;;10.60;95.80;;;;;;4960662;28;19910;-66
2022/04/20 00:36:40;;;;;;;;;;;10.60;95.80;;;;;;4959696;28;19918;-66
2022/04/20 00:39:06;;;;;;;;;;;10.60;96.20;;;;;;4963001;28;20009;-66
2022/04/20 00:41:32;;;;;;;;;;;10.50;95.90;;;;;;4963073;28;19911;-66
2022/04/20 00:43:58;;;;;;;;;;;10.50;96.40;;;;;;4963042;28;19918;-64
2022/04/20 00:46:24;;;;;;;;;;;10.50;96.20;;;;;;4971470;28;20391;-65
2022/04/20 00:48:51;;;;;;;;;;;10.50;96.70;;;;;;4971151;28;19910;-64
2022/04/20 00:51:17;;;;;;;;;;;10.40;96.50;;;;;;4971997;28;19917;-62
2022/04/20 00:53:42;;;;;;;;;;;10.40;96.80;;;;;;4971286;28;19966;-65
2022/04/20 00:56:08;;;;;;;;;;;10.40;96.70;;;;;;4971080;28;19922;-65
2022/04/20 00:58:34;;;;;;;;;;;10.40;96.80;;;;;;4971597;28;19923;-64
2022/04/20 01:01:00;;;;;;;;;;;10.40;96.90;;;;;;4955511;28;19922;-65
2022/04/20 01:03:25;;;;;;;;;;;10.30;96.90;;;;;;4971258;28;19910;-65
2022/04/20 01:05:51;;;;;;;;;;;10.30;96.90;;;;;;4970749;28;19918;-64
2022/04/20 01:08:16;;;;;;;;;;;10.30;97.50;;;;;;4971310;28;19918;-65
2022/04/20 01:10:42;;;;;;;;;;;10.30;97.40;;;;;;4970711;28;19922;-65
2022/04/20 01:13:08;;;;;;;;;;;10.30;97.80;;;;;;4971010;28;19918;-65
2022/04/20 01:15:34;;;;;;;;;;;10.20;97.50;;;;;;4971180;28;20409;-64
2022/04/20 01:18:08;;;;;;;;;;;10.20;97.50;;;;;;4970534;28;20001;-63
2022/04/20 01:20:34;;;;;;;;;;;10.20;97.80;;;;;;4970611;28;19914;-65
2022/04/20 01:22:59;;;;;;;;;;;10.20;98.00;;;;;;4970841;28;20268;-65
2022/04/20 01:25:25;;;;;;;;;;;10.20;97.80;;;;;;4971307;28;19944;-65
2022/04/20 01:27:51;;;;;;;;;;;10.20;97.70;;;;;;4971656;28;20127;-65
2022/04/20 01:30:16;;;;;;;;;;;10.20;97.60;;;;;;4971630;28;19914;-66
2022/04/20 01:32:41;;;;;;;;;;;10.20;97.80;;;;;;4970829;28;19922;-66
2022/04/20 01:35:08;;;;;;;;;;;10.20;97.80;;;;;;4972274;28;19925;-66
2022/04/20 01:37:34;;;;;;;;;;;10.20;98.40;;;;;;4975237;28;19918;-67
2022/04/20 01:39:59;;;;;;;;;;;10.10;98.70;;;;;;4974596;28;19921;-65
2022/04/20 01:42:25;;;;;;;;;;;10.10;98.80;;;;;;4976008;28;20425;-67
2022/04/20 01:44:50;;;;;;;;;;;10.10;98.90;;;;;;4974801;28;20020;-66
2022/04/20 01:47:16;;;;;;;;;;;10.10;98.60;;;;;;4974625;28;19914;-67
2022/04/20 01:49:42;;;;;;;;;;;10.10;98.90;;;;;;4974818;28;19919;-66
2022/04/20 01:52:07;;;;;;;;;;;10.10;98.50;;;;;;4975150;28;20314;-66
2022/04/20 01:54:33;;;;;;;;;;;10.00;98.70;;;;;;4975358;28;19961;-66
2022/04/20 01:56:58;;;;;;;;;;;10.00;98.90;;;;;;4975430;28;19914;-56
2022/04/20 01:59:24;;;;;;;;;;;10.00;99.30;;;;;;4974639;28;20008;-67
2022/04/20 02:04:34;;;;;;;;;;;9.90;99.60;;;;;;4974963;28;19964;-67
2022/04/20 02:06:59;;;;;;;;;;;9.90;99.60;;;;;;4974552;28;19915;-67
2022/04/20 02:09:25;;;;;;;;;;;9.90;99.90;;;;;;4975650;28;19916;-65
2022/04/20 02:11:51;;;;;;;;;;;9.80;99.90;;;;;;4974273;28;20375;-63
2022/04/20 02:14:17;;;;;;;;;;;9.80;99.90;;;;;;4974242;28;19918;-67
2022/04/20 02:16:42;;;;;;;;;;;9.80;99.80;;;;;;4974211;28;19929;-65
2022/04/20 02:19:08;;;;;;;;;;;9.80;99.70;;;;;;4974793;28;20294;-66
2022/04/20 02:21:33;;;;;;;;;;;9.80;99.90;;;;;;4974817;28;20295;-65
2022/04/20 02:23:59;;;;;;;;;;;9.80;99.90;;;;;;4974923;28;20335;-66
2022/04/20 02:26:24;;;;;;;;;;;9.80;99.90;;;;;;4974068;28;19914;-65
2022/04/20 02:28:50;;;;;;;;;;;9.80;99.90;;;;;;4974263;28;19961;-65
2022/04/20 02:31:16;;;;;;;;;;;9.80;99.90;;;;;;4974101;28;20026;-66
2022/04/20 02:33:42;;;;;;;;;;;9.80;99.90;;;;;;4974283;28;19944;-66
2022/04/20 02:36:07;;;;;;;;;;;9.70;99.90;;;;;;4974350;28;19918;-63
2022/04/20 02:38:36;;;;;;;;;;;9.70;99.90;;;;;;4974358;28;20346;-64
2022/04/20 02:41:01;;;;;;;;;;;9.70;99.90;;;;;;4973470;28;20278;-67
2022/04/20 02:43:27;;;;;;;;;;;9.70;99.90;;;;;;4973893;28;19914;-67
2022/04/20 02:45:53;;;;;;;;;;;9.70;99.90;;;;;;4973327;28;19984;-66
2022/04/20 02:48:18;;;;;;;;;;;9.70;99.90;;;;;;4974618;28;19917;-67
2022/04/20 02:50:44;;;;;;;;;;;9.60;99.90;;;;;;4973807;28;19914;-65
2022/04/20 02:53:09;;;;;;;;;;;9.60;99.90;;;;;;4973691;28;20042;-65
2022/04/20 02:55:35;;;;;;;;;;;9.60;99.90;;;;;;4973176;28;19922;-66
2022/04/20 02:58:00;;;;;;;;;;;9.60;99.90;;;;;;4973537;28;19914;-66
2022/04/20 03:00:26;;;;;;;;;;;9.60;99.90;;;;;;4973462;28;20399;-65
2022/04/20 03:02:51;;;;;;;;;;;9.60;99.90;;;;;;4972899;28;19918;-66
2022/04/20 03:05:17;;;;;;;;;;;9.60;99.90;;;;;;4972828;28;20343;-67
2022/04/20 03:07:42;;;;;;;;;;;9.50;99.90;;;;;;4972923;28;20466;-64
2022/04/20 03:10:08;;;;;;;;;;;9.50;99.90;;;;;;4973326;28;20024;-66
2022/04/20 03:12:34;;;;;;;;;;;9.50;99.90;;;;;;4972854;28;19942;-66
2022/04/20 03:15:00;;;;;;;;;;;9.50;99.90;;;;;;4972906;28;20367;-67
2022/04/20 03:17:25;;;;;;;;;;;9.50;99.90;;;;;;4972731;28;19925;-64
2022/04/20 03:19:51;;;;;;;;;;;9.50;99.90;;;;;;4972933;28;19972;-67
2022/04/20 03:22:17;;;;;;;;;;;9.50;99.90;;;;;;4968648;28;19918;-67
2022/04/20 03:24:42;;;;;;;;;;;9.50;99.90;;;;;;4972535;28;19917;-66
2022/04/20 03:27:08;;;;;;;;;;;9.50;99.90;;;;;;4973450;28;20397;-67
2022/04/20 03:29:34;;;;;;;;;;;9.50;99.90;;;;;;4972225;28;20379;-66
2022/04/20 03:32:02;;;;;;;;;;;9.50;99.90;;;;;;4972690;28;19936;-66
2022/04/20 03:34:28;;;;;;;;;;;9.50;99.90;;;;;;4972224;28;20023;-65
2022/04/20 03:36:54;;;;;;;;;;;9.40;99.90;;;;;;4972456;28;20280;-66
2022/04/20 03:39:19;;;;;;;;;;;9.50;99.90;;;;;;4972716;28;19957;-66
2022/04/20 03:41:45;;;;;;;;;;;9.40;99.90;;;;;;4972554;28;20571;-65
2022/04/20 03:44:10;;;;;;;;;;;9.50;99.90;;;;;;4972302;28;19968;-66
2022/04/20 03:46:36;;;;;;;;;;;9.50;99.90;;;;;;4972261;28;19918;-66
2022/04/20 03:49:01;;;;;;;;;;;9.40;99.90;;;;;;4972167;28;19953;-64
2022/04/20 03:51:26;;;;;;;;;;;9.40;99.90;;;;;;4960075;28;20001;-65
2022/04/20 03:53:52;;;;;;;;;;;9.40;99.90;;;;;;4971052;28;19914;-65
2022/04/20 03:56:18;;;;;;;;;;;9.40;99.90;;;;;;4972216;28;19926;-66
2022/04/20 03:58:43;;;;;;;;;;;9.40;99.90;;;;;;4971395;28;19918;-65
2022/04/20 04:01:09;;;;;;;;;;;9.40;99.90;;;;;;4972226;28;19951;-64
2022/04/20 04:03:34;;;;;;;;;;;9.40;99.90;;;;;;4972491;28;19910;-66
2022/04/20 04:06:00;;;;;;;;;;;9.30;99.90;;;;;;4972679;28;20395;-63
2022/04/20 04:08:26;;;;;;;;;;;9.30;99.90;;;;;;4971493;28;19914;-65
2022/04/20 04:10:51;;;;;;;;;;;9.40;99.90;;;;;;4971680;28;19918;-65
2022/04/20 04:13:17;;;;;;;;;;;9.40;99.90;;;;;;4972135;28;19914;-66
2022/04/20 04:15:44;;;;;;;;;;;9.40;99.90;;;;;;4972150;28;19919;-66
2022/04/20 04:18:09;;;;;;;;;;;9.40;99.90;;;;;;4972210;28;20419;-65
2022/04/20 04:20:35;;;;;;;;;;;9.40;99.90;;;;;;4971613;28;19918;-62
2022/04/20 04:23:00;;;;;;;;;;;9.30;99.90;;;;;;4971738;28;19914;-64
2022/04/20 04:25:26;;;;;;;;;;;9.30;99.90;;;;;;4972296;28;20001;-64
2022/04/20 04:27:51;;;;;;;;;;;9.30;99.90;;;;;;4972217;28;19960;-64
2022/04/20 04:30:17;;;;;;;;;;;9.30;99.90;;;;;;4972566;28;20356;-66
2022/04/20 04:32:42;;;;;;;;;;;9.30;99.90;;;;;;4971795;28;19914;-67
2022/04/20 04:35:08;;;;;;;;;;;9.30;99.90;;;;;;4971854;28;19929;-64
2022/04/20 04:37:34;;;;;;;;;;;9.30;99.90;;;;;;4971626;28;19945;-64
2022/04/20 04:40:00;;;;;;;;;;;9.30;99.90;;;;;;4971910;28;20009;-65
2022/04/20 04:42:26;;;;;;;;;;;9.30;99.90;;;;;;4972464;28;19910;-65
2022/04/20 04:44:51;;;;;;;;;;;9.40;99.90;;;;;;4971791;28;19926;-66
2022/04/20 04:50:01;;;;;;;;;;;9.40;99.90;;;;;;4971693;28;20012;-67
2022/04/20 04:52:27;;;;;;;;;;;9.40;99.90;;;;;;4971125;28;20009;-65
2022/04/20 04:54:53;;;;;;;;;;;9.40;99.90;;;;;;4971692;28;20399;-65
2022/04/20 04:57:18;;;;;;;;;;;9.40;99.90;;;;;;4972482;28;20001;-67
2022/04/20 04:59:44;;;;;;;;;;;9.40;99.90;;;;;;4970583;28;20391;-66
2022/04/20 05:02:10;;;;;;;;;;;9.40;99.90;;;;;;4971471;28;19915;-62
2022/04/20 05:04:36;;;;;;;;;;;9.40;99.90;;;;;;4986856;28;19914;-66
2022/04/20 05:07:02;;;;;;;;;;;9.40;99.90;;;;;;4971554;28;19985;-65
2022/04/20 05:09:28;;;;;;;;;;;9.40;99.90;;;;;;4988826;28;19914;-67
2022/04/20 05:11:54;;;;;;;;;;;9.40;99.90;;;;;;4975927;28;19979;-64
2022/04/20 05:14:19;;;;;;;;;;;9.40;99.90;;;;;;4975374;28;19952;-66
2022/04/20 05:16:45;;;;;;;;;;;9.40;99.90;;;;;;4975198;28;19958;-66
2022/04/20 05:19:10;;;;;;;;;;;9.40;99.90;;;;;;4975862;28;19914;-65
2022/04/20 05:21:36;;;;;;;;;;;9.50;99.90;;;;;;4975553;28;19917;-67
2022/04/20 05:24:01;;;;;;;;;;;9.40;99.90;;;;;;4974385;28;19921;-65
2022/04/20 05:26:27;;;;;;;;;;;9.50;99.90;;;;;;4975574;28;19937;-67
2022/04/20 05:28:53;;;;;;;;;;;9.50;99.90;;;;;;4990117;28;19921;-67
2022/04/20 05:31:19;;;;;;;;;;;9.50;99.90;;;;;;4975630;28;19945;-67
2022/04/20 05:33:44;;;;;;;;;;;9.50;99.90;;;;;;4975644;28;20298;-67
2022/04/20 05:36:10;;;;;;;;;;;9.50;99.90;;;;;;4975404;28;19956;-63
2022/04/20 05:41:52;;;;;;;;;;;9.50;99.90;;;;;;4975038;28;19921;-62
2022/04/20 05:44:12;;;;;;;;;;;9.60;99.90;;;;;;4973400;28;19950;-66
2022/04/20 05:46:38;;;;;;;;;;;9.60;99.90;;;;;;4975294;28;19922;-66
2022/04/20 05:49:04;;;;;;;;;;;9.60;99.90;;;;;;4975070;28;19950;-66
2022/04/20 05:51:30;;;;;;;;;;;9.60;99.90;;;;;;4975424;28;20386;-65
2022/04/20 05:53:55;;;;;;;;;;;9.70;99.90;;;;;;4974392;28;19914;-65
2022/04/20 05:56:21;;;;;;;;;;;9.80;99.90;;;;;;4974495;28;19945;-64
2022/04/20 05:58:50;;;;;;;;;;;9.80;99.90;;;;;;4974497;28;19915;-65
2022/04/20 06:01:16;;;;;;;;;;;9.80;99.90;;;;;;4975001;28;19918;-65
2022/04/20 06:03:42;;;;;;;;;;;9.80;99.90;;;;;;4974457;28;19914;-65
2022/04/20 06:06:07;;;;;;;;;;;9.80;99.90;;;;;;4975468;28;20046;-64
2022/04/20 06:08:33;;;;;;;;;;;9.90;99.90;;;;;;4974698;28;19977;-63
2022/04/20 06:10:58;;;;;;;;;;;9.90;99.90;;;;;;4974633;28;19918;-64
2022/04/20 06:13:24;;;;;;;;;;;9.80;99.90;;;;;;4974249;28;19929;-65
2022/04/20 06:15:51;;;;;;;;;;;9.80;99.90;;;;;;4974672;28;19972;-64
2022/04/20 06:18:16;;;;;;;;;;;9.90;99.90;;;;;;4975109;28;19910;-63
2022/04/20 06:20:42;;;;;;;;;;;9.90;99.90;;;;;;4973181;28;19924;-63
2022/04/20 06:23:07;;;;;;;;;;;9.90;99.90;;;;;;4974007;28;20291;-65
2022/04/20 06:25:33;;;;;;;;;;;9.90;99.90;;;;;;4974217;28;19956;-64
2022/04/20 06:27:59;;;;;;;;;;;9.90;99.90;;;;;;4973379;28;19922;-63
2022/04/20 06:30:24;;;;;;;;;;;10.00;99.90;;;;;;4974676;28;19910;-64
2022/04/20 06:32:50;;;;;;;;;;;10.00;99.90;;;;;;4973544;28;19964;-65
2022/04/20 06:35:15;;;;;;;;;;;10.10;99.90;;;;;;4988653;28;19997;-65
2022/04/20 06:37:41;;;;;;;;;;;10.10;99.90;;;;;;4973520;28;19918;-64
2022/04/20 06:40:07;;;;;;;;;;;10.10;99.90;;;;;;4973806;28;19914;-65
2022/04/20 06:42:33;;;;;;;;;;;10.20;99.90;;;;;;4974815;28;19917;-65
2022/04/20 06:44:58;;;;;;;;;;;10.30;99.90;;;;;;4973943;28;20029;-65
2022/04/20 06:47:24;;;;;;;;;;;10.30;99.90;;;;;;4973701;28;20364;-64
2022/04/20 06:49:49;;;;;;;;;;;10.40;99.90;;;;;;4973837;28;19914;-64
2022/04/20 07:00:27;;;;;;;;;;;10.50;99.90;;;;;;4974321;28;19998;-64
2022/04/20 07:03:00;;;;;;;;;;;10.60;99.90;;;;;;4972694;28;20000;-67
2022/04/20 07:05:25;;;;;;;;;;;10.60;99.90;;;;;;4973283;28;19914;-66
2022/04/20 07:07:51;;;;;;;;;;;10.60;99.90;;;;;;4973046;28;20418;-64
2022/04/20 07:10:16;;;;;;;;;;;10.70;99.90;;;;;;4973316;28;19918;-67
2022/04/20 07:12:42;;;;;;;;;;;10.80;99.90;;;;;;4973922;28;19961;-65
2022/04/20 07:15:07;;;;;;;;;;;10.80;99.90;;;;;;4974058;28;20442;-64
2022/04/20 07:17:33;;;;;;;;;;;10.90;99.90;;;;;;4972796;28;19921;-65
2022/04/20 07:20:00;;;;;;;;;;;11.00;99.90;;;;;;4973002;28;19925;-66
2022/04/20 07:22:26;;;;;;;;;;;11.10;99.90;;;;;;4973277;28;19922;-65
2022/04/20 07:24:51;;;;;;;;;;;11.10;99.90;;;;;;4973158;28;20375;-64
2022/04/20 07:27:17;;;;;;;;;;;11.20;99.90;;;;;;4973405;28;19914;-65
2022/04/20 07:29:43;;;;;;;;;;;11.30;99.90;;;;;;4972439;28;19915;-65
2022/04/20 07:32:08;;;;;;;;;;;11.40;99.90;;;;;;4972175;28;19920;-65
2022/04/20 07:34:34;;;;;;;;;;;11.50;99.90;;;;;;4972705;28;19921;-65
2022/04/20 07:36:59;;;;;;;;;;;11.50;99.90;;;;;;4972711;28;19933;-67
2022/04/20 07:39:25;;;;;;;;;;;11.50;99.60;;;;;;4973006;28;19953;-67
2022/04/20 07:41:51;;;;;;;;;;;11.60;99.70;;;;;;4972557;28;19914;-65
2022/04/20 07:44:16;;;;;;;;;;;11.60;99.90;;;;;;4972052;28;20353;-66
2022/04/20 07:46:41;;;;;;;;;;;11.70;99.80;;;;;;4971766;28;19922;-65
2022/04/20 07:51:52;;;;;;;;;;;11.70;99.30;;;;;;4972082;28;19956;-64
2022/04/20 07:54:18;;;;;;;;;;;11.80;98.80;;;;;;4972021;28;20016;-57
2022/04/20 07:56:43;;;;;;;;;;;11.90;98.90;;;;;;4973833;28;20724;-60
2022/04/20 07:59:09;;;;;;;;;;;11.90;98.80;;;;;;4975040;28;20331;-60
2022/04/20 08:01:35;;;;;;;;;;;12.00;98.90;;;;;;4971913;28;19977;-59
2022/04/20 08:04:00;;;;;;;;;;;12.00;98.30;;;;;;4972422;28;19977;-58
2022/04/20 08:06:27;;;;;;;;;;;12.10;98.70;;;;;;4973048;28;20371;-59
2022/04/20 08:08:52;;;;;;;;;;;12.10;98.90;;;;;;4972110;28;19918;-57
2022/04/20 08:11:18;;;;;;;;;;;12.20;98.40;;;;;;4972200;28;19921;-56
2022/04/20 08:16:29;;;;;;;;;;;12.30;97.00;;;;;;4963755;28;20356;-57
2022/04/20 08:18:54;;;;;;;;;;;12.30;97.20;;;;;;4968020;28;19984;-60
2022/04/20 08:21:20;;;;;;;;;;;12.40;97.00;;;;;;4974193;28;19934;-57
2022/04/20 08:23:45;;;;;;;;;;;12.50;96.80;;;;;;4973768;28;19914;-58
2022/04/20 08:26:11;;;;;;;;;;;12.50;96.30;;;;;;4973034;28;19949;-57
2022/04/20 08:28:36;;;;;;;;;;;12.60;96.90;;;;;;4968591;28;19942;-58
2022/04/20 08:31:02;;;;;;;;;;;12.70;96.20;;;;;;4973685;28;19949;-57
2022/04/20 08:33:27;;;;;;;;;;;12.70;96.50;;;;;;4970295;28;19925;-55
2022/04/20 08:35:53;;;;;;;;;;;12.80;96.00;;;;;;4973014;28;19925;-59
2022/04/20 08:38:18;;;;;;;;;;;12.90;95.80;;;;;;4972150;28;19918;-58
2022/04/20 08:40:44;;;;;;;;;;;12.90;95.20;;;;;;4976395;28;19949;-57
2022/04/20 08:43:10;;;;;;;;;;;13.00;94.70;;;;;;4970755;28;20354;-59
2022/04/20 08:45:38;;;;;;;;;;;13.00;95.40;;;;;;4968272;28;19929;-58
2022/04/20 08:48:04;;;;;;;;;;;13.00;95.10;;;;;;4971841;28;20480;-58
2022/04/20 08:50:30;;;;;;;;;;;13.10;95.90;;;;;;4971419;28;19997;-58
2022/04/20 08:52:55;;;;;;;;;;;13.20;95.30;;;;;;4972095;28;19996;-58
2022/04/20 08:55:21;;;;;;;;;;;13.20;95.20;;;;;;4971320;28;20001;-58
2022/04/20 08:57:48;;;;;;;;;;;13.30;94.30;;;;;;4971320;28;19926;-57
2022/04/20 09:00:17;;;;;;;;;;;13.30;94.30;;;;;;4970080;28;19914;-58
2022/04/20 09:02:43;;;;;;;;;;;13.30;93.60;;;;;;4971588;28;20364;-58
2022/04/20 09:05:08;;;;;;;;;;;13.40;94.10;;;;;;4971707;28;19914;-57
2022/04/20 09:07:34;;;;;;;;;;;13.50;92.60;;;;;;4971215;28;19933;-58
2022/04/20 09:10:00;;;;;;;;;;;13.50;93.40;;;;;;4971601;28;19918;-56
2022/04/20 09:12:27;;;;;;;;;;;13.60;93.50;;;;;;4971623;28;19910;-57
2022/04/20 09:14:53;;;;;;;;;;;13.60;93.20;;;;;;4971483;28;19918;-58
2022/04/20 09:17:22;;;;;;;;;;;13.70;93.40;;;;;;4970889;28;19946;-58
2022/04/20 09:19:49;;;;;;;;;;;13.70;92.60;;;;;;4966986;28;19914;-58
2022/04/20 09:22:19;;;;;;;;;;;13.80;92.90;;;;;;4971351;28;19914;-58
2022/04/20 09:25:11;;;;;;;;;;;13.90;93.50;;;;;;4971385;28;19914;-59
2022/04/20 09:27:41;;;;;;;;;;;13.90;93.20;;;;;;4967691;28;19918;-58
2022/04/20 09:30:16;;;;;;;;;;;14.00;92.60;;;;;;4971053;28;19961;-58
2022/04/20 09:32:41;;;;;;;;;;;14.00;93.00;;;;;;4971264;28;19956;-58
2022/04/20 09:35:08;;;;;;;;;;;14.00;92.70;;;;;;4968529;28;19965;-56
2022/04/20 09:37:36;;;;;;;;;;;14.10;92.20;;;;;;4971220;28;19910;-57
2022/04/20 09:40:04;;;;;;;;;;;14.20;92.30;;;;;;4971698;28;19922;-58
2022/04/20 09:42:31;;;;;;;;;;;14.30;92.00;;;;;;4967248;28;19953;-58
2022/04/20 09:44:59;;;;;;;;;;;14.40;91.60;;;;;;4970145;28;19926;-59
2022/04/20 09:50:09;;;;;;;;;;;14.50;90.90;;;;;;4971211;28;19937;-57
2022/04/20 09:52:42;;;;;;;;;;;14.60;91.40;;;;;;4971231;28;20306;-58
2022/04/20 09:55:11;;;;;;;;;;;14.60;91.10;;;;;;4956318;28;19918;-59
2022/04/20 09:57:37;;;;;;;;;;;14.70;91.10;;;;;;4974244;28;19925;-58
2022/04/20 10:00:03;;;;;;;;;;;14.80;89.80;;;;;;4974823;28;19914;-58
2022/04/20 10:02:29;;;;;;;;;;;14.80;90.40;;;;;;4974556;28;20013;-57
2022/04/20 10:04:55;;;;;;;;;;;14.80;87.80;;;;;;4974567;28;20398;-58
2022/04/20 10:07:21;;;;;;;;;;;14.80;89.00;;;;;;4974574;28;19914;-58
2022/04/20 10:09:47;;;;;;;;;;;14.80;90.00;;;;;;4974639;28;20343;-59
2022/04/20 10:12:17;;;;;;;;;;;14.90;89.10;;;;;;4974623;28;20106;-59
2022/04/20 10:17:31;;;;;;;;;;;15.10;88.20;;;;;;4974399;28;20019;-58
2022/04/20 10:19:57;;;;;;;;;;;15.10;88.80;;;;;;4974348;28;20001;-58
2022/04/20 10:22:25;;;;;;;;;;;15.20;88.60;;;;;;4974459;28;19921;-57
2022/04/20 10:24:52;;;;;;;;;;;15.30;87.90;;;;;;4973794;28;19910;-58
2022/04/20 10:27:37;;;;;;;;;;;15.30;87.20;;;;;;4975225;28;19918;-59
2022/04/20 10:30:07;;;;;;;;;;;15.30;87.50;;;;;;4974091;28;19977;-58
2022/04/20 10:32:50;;;;;;;;;;;15.40;86.40;;;;;;4974283;28;20343;-58
2022/04/20 10:35:16;;;;;;;;;;;15.40;86.50;;;;;;4973907;28;20338;-58
2022/04/20 10:38:02;;;;;;;;;;;15.50;87.40;;;;;;4973673;28;20621;-58
2022/04/20 10:40:28;;;;;;;;;;;15.50;85.60;;;;;;4973738;28;19915;-58
2022/04/20 10:43:12;;;;;;;;;;;15.50;85.20;;;;;;4973832;28;19949;-58
2022/04/20 10:45:37;;;;;;;;;;;15.60;85.90;;;;;;4973892;28;20016;-57
2022/04/20 10:48:03;;;;;;;;;;;15.70;86.50;;;;;;4974274;28;20005;-58
2022/04/20 10:50:30;;;;;;;;;;;15.70;86.20;;;;;;4973562;28;19986;-56
2022/04/20 10:53:08;;;;;;;;;;;15.70;86.60;;;;;;4973845;28;20302;-58
2022/04/20 10:55:33;;;;;;;;;;;15.70;86.30;;;;;;4973494;28;19972;-57
2022/04/20 10:58:17;;;;;;;;;;;15.80;86.50;;;;;;4973767;28;19914;-58
2022/04/20 11:00:42;;;;;;;;;;;15.70;86.60;;;;;;4973442;28;19910;-57
2022/04/20 11:03:10;;;;;;;;;;;15.90;85.20;;;;;;4974073;28;19915;-58
2022/04/20 11:05:49;;;;;;;;;;;15.90;84.30;;;;;;4973555;28;20359;-58
2022/04/20 11:08:15;;;;;;;;;;;16.00;85.90;;;;;;4972786;28;20370;-57
2022/04/20 11:10:42;;;;;;;;;;;16.00;85.30;;;;;;4973456;28;19946;-58
2022/04/20 11:19:03;;;;;;;;;;;16.30;83.40;;;;;;4973552;28;20295;-58
2022/04/20 11:21:28;;;;;;;;;;;16.40;83.10;;;;;;4973697;28;20008;-58
2022/04/20 11:23:57;;;;;;;;;;;16.50;84.10;;;;;;4973157;28;20001;-58
2022/04/20 11:26:49;;;;;;;;;;;16.50;83.40;;;;;;4972923;28;20030;-57
2022/04/20 11:29:16;;;;;;;;;;;16.60;81.70;;;;;;4970442;28;19910;-58
2022/04/20 11:31:42;;;;;;;;;;;16.70;79.70;;;;;;4972986;28;20436;-58
2022/04/20 11:34:09;;;;;;;;;;;16.70;76.30;;;;;;4973328;28;20350;-59
2022/04/20 11:36:38;;;;;;;;;;;16.70;76.40;;;;;;4973570;28;19929;-58
2022/04/20 11:39:03;;;;;;;;;;;16.70;78.80;;;;;;4972714;28;19965;-58
2022/04/20 11:41:29;;;;;;;;;;;16.70;76.90;;;;;;4972401;28;19945;-58
2022/04/20 11:43:54;;;;;;;;;;;16.80;76.10;;;;;;4972997;28;19914;-58
2022/04/20 11:46:20;;;;;;;;;;;16.80;77.10;;;;;;4972781;28;19926;-58
2022/04/20 11:48:56;;;;;;;;;;;16.90;78.20;;;;;;4972558;28;19910;-58
2022/04/20 11:51:23;;;;;;;;;;;17.00;74.80;;;;;;4972076;28;20525;-58
2022/04/20 11:53:49;;;;;;;;;;;17.00;75.10;;;;;;4972049;28;19921;-58
2022/04/20 11:56:15;;;;;;;;;;;17.00;75.20;;;;;;4972382;28;20299;-58
2022/04/20 11:58:41;;;;;;;;;;;17.00;74.50;;;;;;4972765;28;20402;-58
2022/04/20 12:01:07;;;;;;;;;;;17.00;74.50;;;;;;4972765;28;20375;-58
2022/04/20 12:03:36;;;;;;;;;;;17.10;74.60;;;;;;4973099;28;19921;-58
2022/04/20 12:06:08;;;;;;;;;;;17.30;74.60;;;;;;4972414;28;19920;-58
2022/04/20 12:08:35;;;;;;;;;;;17.30;74.10;;;;;;4972530;28;20042;-58
2022/04/20 12:11:02;;;;;;;;;;;17.30;71.00;;;;;;4972055;28;19914;-59
2022/04/20 12:13:29;;;;;;;;;;;17.20;71.10;;;;;;4972062;28;19914;-59
2022/04/20 12:16:02;;;;;;;;;;;17.20;70.40;;;;;;4971860;28;19980;-59
2022/04/20 12:18:33;;;;;;;;;;;17.20;71.70;;;;;;4972212;28;19917;-58
2022/04/20 12:20:59;;;;;;;;;;;17.30;70.80;;;;;;4971570;28;19917;-59
2022/04/20 12:23:34;;;;;;;;;;;17.30;69.20;;;;;;4972299;28;20291;-58
2022/04/20 12:26:03;;;;;;;;;;;17.30;68.10;;;;;;4972046;28;19914;-57
2022/04/20 12:28:44;;;;;;;;;;;17.20;67.50;;;;;;4972273;28;19968;-59
2022/04/20 12:31:12;;;;;;;;;;;17.30;66.80;;;;;;4971698;28;20147;-58
2022/04/20 12:33:38;;;;;;;;;;;17.30;68.50;;;;;;4972494;28;20008;-59
2022/04/20 12:36:06;;;;;;;;;;;17.40;65.10;;;;;;4971919;28;20012;-59
2022/04/20 12:38:42;;;;;;;;;;;17.40;65.20;;;;;;4971767;28;19914;-59
2022/04/20 12:41:29;;;;;;;;;;;17.40;64.10;;;;;;4971697;28;19922;-59
2022/04/20 12:43:54;;;;;;;;;;;17.50;65.70;;;;;;4971148;28;20014;-58
2022/04/20 12:46:20;;;;;;;;;;;17.50;65.10;;;;;;4971572;28;20026;-59
2022/04/20 12:48:47;;;;;;;;;;;17.60;64.10;;;;;;4971818;28;19914;-58
2022/04/20 12:51:22;;;;;;;;;;;17.60;65.20;;;;;;4972250;28;19914;-59
2022/04/20 12:53:48;;;;;;;;;;;17.60;66.50;;;;;;4971460;28;19910;-59
2022/04/20 13:04:26;;;;;;;;;;;17.70;61.20;;;;;;4971549;28;19982;-59
2022/04/20 13:06:52;;;;;;;;;;;17.80;60.80;;;;;;4986369;28;20042;-59
2022/04/20 13:09:18;;;;;;;;;;;17.70;59.20;;;;;;4972484;28;19917;-59
2022/04/20 13:11:43;;;;;;;;;;;17.80;60.00;;;;;;4970623;28;19914;-58
2022/04/20 13:14:09;;;;;;;;;;;17.70;60.40;;;;;;4971398;28;19950;-59
2022/04/20 13:16:34;;;;;;;;;;;17.70;59.10;;;;;;4971923;28;20004;-59
2022/04/20 13:19:00;;;;;;;;;;;17.70;60.10;;;;;;4971246;28;19924;-58
2022/04/20 13:21:26;;;;;;;;;;;17.70;59.90;;;;;;4972124;28;19910;-59
2022/04/20 13:23:52;;;;;;;;;;;17.70;59.70;;;;;;4970714;28;19914;-59
2022/04/20 13:29:02;;;;;;;;;;;17.80;60.60;;;;;;4971770;28;19968;-58
2022/04/20 13:31:28;;;;;;;;;;;17.90;59.10;;;;;;4974295;28;19914;-59
2022/04/20 13:33:54;;;;;;;;;;;17.90;58.20;;;;;;4971495;28;19914;-59
2022/04/20 13:36:19;;;;;;;;;;;17.80;58.80;;;;;;4969365;28;19926;-59
2022/04/20 13:38:45;;;;;;;;;;;17.90;58.60;;;;;;4988249;28;19914;-58
2022/04/20 13:41:12;;;;;;;;;;;17.90;58.60;;;;;;4972927;28;19914;-58
2022/04/20 13:43:37;;;;;;;;;;;17.90;58.70;;;;;;4970591;28;19921;-59
2022/04/20 13:46:03;;;;;;;;;;;18.00;57.00;;;;;;4976268;28;20408;-57
2022/04/20 13:48:29;;;;;;;;;;;18.00;57.20;;;;;;4979731;28;19976;-58
2022/04/20 13:50:54;;;;;;;;;;;18.00;56.20;;;;;;4972394;28;19922;-59
2022/04/20 13:53:20;;;;;;;;;;;18.00;57.80;;;;;;4972556;28;19914;-60
2022/04/20 13:55:45;;;;;;;;;;;18.00;57.80;;;;;;4970778;28;19964;-60
2022/04/20 13:58:11;;;;;;;;;;;18.10;56.80;;;;;;4971107;28;19957;-59
2022/04/20 14:00:39;;;;;;;;;;;18.10;58.10;;;;;;4972409;28;19918;-59
2022/04/20 14:03:05;;;;;;;;;;;18.10;57.40;;;;;;4971830;28;20398;-59
2022/04/20 14:05:30;;;;;;;;;;;18.10;56.50;;;;;;4972297;28;20004;-58
2022/04/20 14:07:56;;;;;;;;;;;18.00;56.20;;;;;;4971421;28;19957;-59
2022/04/20 14:10:22;;;;;;;;;;;18.00;55.40;;;;;;4970677;28;19972;-59
2022/04/20 14:12:48;;;;;;;;;;;18.00;56.40;;;;;;4972925;28;20299;-60
2022/04/20 14:15:16;;;;;;;;;;;18.00;56.60;;;;;;4969388;28;19985;-58
2022/04/20 14:17:42;;;;;;;;;;;18.00;55.90;;;;;;4972053;28;20399;-59
2022/04/20 14:20:09;;;;;;;;;;;18.00;57.20;;;;;;4972159;28;19949;-59
2022/04/20 14:22:34;;;;;;;;;;;18.00;56.50;;;;;;4972329;28;19914;-60
2022/04/20 14:33:12;;;;;;;;;;;18.30;57.80;;;;;;4971815;28;19925;-59
2022/04/20 14:35:38;;;;;;;;;;;18.50;57.90;;;;;;4973857;28;19926;-60
2022/04/20 14:38:04;;;;;;;;;;;18.50;58.10;;;;;;4972137;28;19918;-59
2022/04/20 14:40:29;;;;;;;;;;;18.50;55.50;;;;;;4970950;28;19914;-59
2022/04/20 14:42:55;;;;;;;;;;;18.50;55.60;;;;;;4968027;28;19922;-59
2022/04/20 14:45:23;;;;;;;;;;;18.50;55.30;;;;;;4972289;28;19926;-59
2022/04/20 14:47:49;;;;;;;;;;;18.50;55.80;;;;;;4970595;28;19961;-59
2022/04/20 14:50:15;;;;;;;;;;;18.50;54.50;;;;;;4969769;28;20617;-59
2022/04/20 14:52:41;;;;;;;;;;;18.50;54.20;;;;;;4971271;28;20056;-57
2022/04/20 14:55:07;;;;;;;;;;;18.50;53.20;;;;;;4970471;28;19924;-60
2022/04/20 14:57:32;;;;;;;;;;;18.50;54.80;;;;;;4972751;28;19918;-59
2022/04/20 14:59:58;;;;;;;;;;;18.50;55.60;;;;;;4959383;28;20279;-59
2022/04/20 15:02:23;;;;;;;;;;;18.40;53.80;;;;;;4970793;28;19922;-59
2022/04/20 15:04:49;;;;;;;;;;;18.40;55.50;;;;;;4970862;28;19921;-59
2022/04/20 15:07:14;;;;;;;;;;;18.40;55.60;;;;;;4969090;28;19922;-60
2022/04/20 15:09:40;;;;;;;;;;;18.30;54.80;;;;;;4970422;28;19914;-57